createdAt,value
2019-05-18T00:00:54.796Z,37.28
2019-05-18T00:03:58.283Z,37.24
2019-05-18T00:07:01.787Z,37.26
2019-05-18T00:10:06.533Z,37.26
2019-05-18T00:13:10.013Z,37.28
2019-05-18T00:16:13.514Z,37.24
2019-05-18T00:19:17.033Z,37.24
2019-05-18T00:22:20.678Z,37.22
2019-05-18T00:25:24.220Z,37.20
2019-05-18T00:28:29.786Z,37.26
2019-05-18T00:31:33.277Z,37.22
2019-05-18T00:34:36.772Z,37.23
2019-05-18T00:37:40.272Z,37.23
2019-05-18T00:40:44.820Z,37.32
2019-05-18T00:43:49.376Z,37.23
2019-05-18T00:46:52.842Z,37.22
2019-05-18T00:49:57.349Z,37.25
2019-05-18T00:53:00.863Z,37.26
2019-05-18T00:56:05.650Z,37.26
2019-05-18T00:59:15.741Z,37.28
2019-05-18T01:02:15.449Z,37.26
2019-05-18T01:05:18.953Z,37.29
2019-05-18T01:08:22.464Z,37.24
2019-05-18T01:11:26.982Z,37.23
2019-05-18T01:14:31.518Z,37.27
2019-05-18T01:17:36.051Z,37.24
2019-05-18T01:20:39.518Z,37.27
2019-05-18T01:23:43.143Z,37.26
2019-05-18T01:26:46.732Z,37.24
2019-05-18T01:29:50.500Z,37.21
2019-05-18T01:32:53.916Z,37.20
2019-05-18T01:35:57.459Z,37.24
2019-05-18T01:39:00.946Z,37.27
2019-05-18T01:42:04.439Z,37.26
2019-05-18T01:45:16.306Z,37.25
2019-05-18T01:48:14.634Z,37.26
2019-05-18T01:51:18.418Z,37.23
2019-05-18T01:54:21.925Z,37.29
2019-05-18T01:57:25.446Z,37.28
2019-05-18T02:00:28.934Z,37.21
2019-05-18T02:03:33.591Z,37.28
2019-05-18T02:06:38.577Z,37.20
2019-05-18T02:09:42.455Z,37.25
2019-05-18T02:12:46.279Z,37.27
2019-05-18T02:15:49.739Z,37.22
2019-05-18T02:18:54.232Z,37.22
2019-05-18T02:21:57.748Z,37.20
2019-05-18T02:25:01.242Z,37.21
2019-05-18T02:28:06.450Z,37.27
2019-05-18T02:31:09.886Z,37.18
2019-05-18T02:34:13.396Z,37.27
2019-05-18T02:37:16.883Z,37.25
2019-05-18T02:40:20.423Z,37.29
2019-05-18T02:43:23.885Z,37.28
2019-05-18T02:46:27.393Z,37.31
2019-05-18T02:49:31.887Z,37.31
2019-05-18T02:52:35.405Z,37.32
2019-05-18T02:55:40.960Z,37.25
2019-05-18T02:58:44.490Z,37.26
2019-05-18T03:01:47.975Z,37.21
2019-05-18T03:04:51.511Z,37.21
2019-05-18T03:07:54.974Z,37.24
2019-05-18T03:10:58.458Z,37.20
2019-05-18T03:14:02.024Z,37.22
2019-05-18T03:17:05.487Z,37.28
2019-05-18T03:20:09.999Z,37.22
2019-05-18T03:23:13.502Z,37.25
2019-05-18T03:26:17.000Z,37.23
2019-05-18T03:29:21.517Z,37.26
2019-05-18T03:32:26.035Z,37.20
2019-05-18T03:35:29.554Z,37.29
2019-05-18T03:38:34.087Z,37.26
2019-05-18T03:41:37.563Z,37.29
2019-05-18T03:44:42.092Z,37.24
2019-05-18T03:47:45.591Z,37.32
2019-05-18T03:50:49.107Z,37.26
2019-05-18T03:53:52.599Z,37.23
2019-05-18T03:56:56.098Z,37.22
2019-05-18T03:59:59.592Z,37.26
2019-05-18T04:03:03.096Z,37.26
2019-05-18T04:06:06.594Z,37.25
2019-05-18T04:09:10.119Z,37.25
2019-05-18T04:12:13.605Z,37.29
2019-05-18T04:15:17.141Z,37.27
2019-05-18T04:18:20.615Z,37.24
2019-05-18T04:21:24.101Z,37.22
2019-05-18T04:24:27.596Z,37.35
2019-05-18T04:27:34.177Z,37.27
2019-05-18T04:30:37.675Z,37.26
2019-05-18T04:33:42.207Z,37.27
2019-05-18T04:36:45.697Z,37.30
2019-05-18T04:39:49.213Z,37.37
2019-05-18T04:42:53.724Z,37.34
2019-05-18T04:45:57.298Z,37.28
2019-05-18T04:49:01.755Z,37.16
2019-05-18T04:52:06.296Z,37.26
2019-05-18T04:55:09.777Z,37.29
2019-05-18T04:58:13.465Z,37.29
2019-05-18T05:01:16.998Z,37.32
2019-05-18T05:04:20.496Z,37.25
2019-05-18T05:07:25.016Z,37.26
2019-05-18T05:10:29.548Z,37.28
2019-05-18T05:13:34.062Z,37.27
2019-05-18T05:16:37.564Z,37.24
2019-05-18T05:19:41.086Z,37.29
2019-05-18T05:22:44.652Z,37.25
2019-05-18T05:25:48.266Z,37.23
2019-05-18T05:28:51.784Z,37.31
2019-05-18T05:31:55.593Z,37.24
2019-05-18T05:34:58.992Z,37.32
2019-05-18T05:38:02.491Z,37.27
2019-05-18T05:41:05.980Z,37.31
2019-05-18T05:44:09.482Z,37.29
2019-05-18T05:47:14.007Z,37.25
2019-05-18T05:50:17.502Z,37.35
2019-05-18T05:53:22.096Z,37.32
2019-05-18T05:56:25.549Z,37.36
2019-05-18T05:59:29.035Z,37.28
2019-05-18T06:02:33.551Z,37.31
2019-05-18T06:05:37.054Z,37.35
2019-05-18T06:08:40.566Z,37.32
2019-05-18T06:11:44.072Z,37.32
2019-05-18T06:14:48.597Z,37.29
2019-05-18T06:17:53.126Z,37.32
2019-05-18T06:20:56.612Z,37.38
2019-05-18T06:24:00.107Z,37.35
2019-05-18T06:27:03.609Z,37.40
2019-05-18T06:30:07.298Z,37.31
2019-05-18T06:33:10.979Z,37.39
2019-05-18T06:36:14.431Z,37.33
2019-05-18T06:39:18.060Z,37.34
2019-05-18T06:42:22.537Z,37.33
2019-05-18T06:45:26.379Z,37.31
2019-05-18T06:48:30.120Z,37.29
2019-05-18T06:51:33.671Z,37.29
2019-05-18T06:54:37.260Z,37.29
2019-05-18T06:57:41.688Z,37.31
2019-05-18T07:00:45.203Z,37.21
2019-05-18T07:03:48.702Z,37.24
2019-05-18T07:06:52.367Z,37.40
2019-05-18T07:09:55.886Z,37.63
2019-05-18T07:12:59.395Z,37.87
2019-05-18T07:16:03.690Z,37.88
2019-05-18T07:19:07.139Z,37.87
2019-05-18T07:22:10.737Z,37.78
2019-05-18T07:25:15.856Z,37.80
2019-05-18T07:28:19.485Z,37.77
2019-05-18T07:31:23.067Z,37.72
2019-05-18T07:34:26.956Z,37.69
2019-05-18T07:37:32.543Z,37.66
2019-05-18T07:40:36.028Z,37.66
2019-05-18T07:43:39.543Z,37.59
2019-05-18T07:46:43.043Z,37.51
2019-05-18T07:49:48.583Z,37.50
2019-05-18T07:52:52.184Z,37.45
2019-05-18T07:55:55.793Z,37.39
2019-05-18T07:58:59.377Z,37.38
2019-05-18T08:02:02.989Z,37.35
2019-05-18T08:05:06.588Z,37.31
2019-05-18T08:08:10.198Z,37.32
2019-05-18T08:11:13.711Z,37.28
2019-05-18T08:14:17.201Z,37.28
2019-05-18T08:17:20.713Z,37.21
2019-05-18T08:20:24.194Z,37.20
2019-05-18T08:23:27.703Z,37.23
2019-05-18T08:26:31.203Z,37.28
2019-05-18T08:29:35.727Z,37.37
2019-05-18T08:32:39.229Z,37.74
2019-05-18T08:35:42.750Z,37.85
2019-05-18T08:38:46.257Z,37.90
2019-05-18T08:41:50.756Z,38.01
2019-05-18T08:44:54.307Z,37.93
2019-05-18T08:47:57.762Z,37.97
2019-05-18T08:51:02.282Z,38.00
2019-05-18T08:54:06.807Z,38.09
2019-05-18T08:57:10.325Z,38.00
2019-05-18T09:00:13.812Z,38.07
2019-05-18T09:03:17.314Z,38.02
2019-05-18T09:06:20.812Z,37.96
2019-05-18T09:09:24.311Z,38.08
2019-05-18T09:12:32.368Z,38.17
2019-05-18T09:15:41.771Z,38.13
2019-05-18T09:18:46.439Z,38.14
2019-05-18T09:21:50.008Z,38.10
2019-05-18T09:24:53.517Z,38.05
2019-05-18T09:27:59.045Z,38.12
2019-05-18T09:31:02.557Z,38.10
2019-05-18T09:34:06.047Z,38.18
2019-05-18T09:37:09.517Z,38.13
2019-05-18T09:40:13.065Z,38.15
2019-05-18T09:43:16.543Z,38.22
2019-05-18T09:46:20.072Z,38.21
2019-05-18T09:49:23.544Z,38.23
2019-05-18T09:52:44.191Z,38.22
2019-05-18T09:55:33.415Z,38.25
2019-05-18T09:58:36.915Z,38.25
2019-05-18T10:01:40.426Z,38.09
2019-05-18T10:04:43.938Z,37.97
2019-05-18T10:07:47.418Z,37.96
2019-05-18T10:10:50.923Z,37.93
2019-05-18T10:13:54.426Z,37.92
2019-05-18T10:16:57.930Z,37.88
2019-05-18T10:20:01.446Z,37.86
2019-05-18T10:23:13.247Z,37.80
2019-05-18T10:26:10.285Z,37.85
2019-05-18T10:29:15.832Z,37.86
2019-05-18T10:32:20.365Z,37.84
2019-05-18T10:35:23.852Z,37.79
2019-05-18T10:38:27.351Z,37.83
2019-05-18T10:41:30.852Z,37.87
2019-05-18T10:44:34.364Z,37.87
2019-05-18T10:47:37.853Z,37.90
2019-05-18T10:50:41.347Z,37.90
2019-05-18T10:53:44.860Z,37.91
2019-05-18T10:56:48.370Z,37.92
2019-05-18T10:59:51.853Z,37.96
2019-05-18T11:02:55.368Z,37.90
2019-05-18T11:05:58.861Z,37.93
2019-05-18T11:09:04.457Z,37.89
2019-05-18T11:12:07.912Z,37.89
2019-05-18T11:15:13.111Z,37.90
2019-05-18T11:18:16.542Z,38.05
2019-05-18T11:21:20.055Z,38.23
2019-05-18T11:24:24.568Z,38.19
2019-05-18T11:27:28.207Z,38.19
2019-05-18T11:30:32.799Z,38.22
2019-05-18T11:33:36.310Z,38.20
2019-05-18T11:36:39.823Z,38.23
2019-05-18T11:39:44.320Z,38.17
2019-05-18T11:42:48.867Z,38.21
2019-05-18T11:45:52.405Z,38.20
2019-05-18T11:48:55.874Z,38.17
2019-05-18T11:51:59.356Z,38.17
2019-05-18T11:55:04.017Z,38.19
2019-05-18T11:58:10.459Z,38.23
2019-05-18T12:01:15.001Z,38.26
2019-05-18T12:04:20.538Z,38.36
2019-05-18T12:07:24.027Z,38.32
2019-05-18T12:10:27.579Z,38.33
2019-05-18T12:13:31.034Z,38.25
2019-05-18T12:16:34.530Z,38.15
2019-05-18T12:19:39.078Z,38.11
2019-05-18T12:22:42.597Z,38.05
2019-05-18T12:25:46.077Z,37.96
2019-05-18T12:28:50.599Z,37.96
2019-05-18T12:31:54.098Z,37.91
2019-05-18T12:34:57.603Z,37.88
2019-05-18T12:38:01.113Z,37.88
2019-05-18T12:41:05.615Z,37.82
2019-05-18T12:44:09.233Z,37.81
2019-05-18T12:47:14.471Z,37.80
2019-05-18T12:50:18.477Z,37.76
2019-05-18T12:53:22.092Z,37.74
2019-05-18T12:56:25.583Z,37.70
2019-05-18T12:59:29.114Z,37.73
2019-05-18T13:02:32.579Z,37.68
2019-05-18T13:05:37.121Z,37.76
2019-05-18T13:08:40.604Z,38.02
2019-05-18T13:11:44.256Z,38.22
2019-05-18T13:14:47.862Z,38.24
2019-05-18T13:17:52.516Z,38.14
2019-05-18T13:20:56.037Z,38.02
2019-05-18T13:23:59.572Z,37.93
2019-05-18T13:27:04.079Z,37.85
2019-05-18T13:30:07.591Z,37.81
2019-05-18T13:33:11.096Z,37.73
2019-05-18T13:36:14.600Z,37.70
2019-05-18T13:39:18.071Z,37.69
2019-05-18T13:42:21.573Z,37.60
2019-05-18T13:45:25.207Z,37.57
2019-05-18T13:48:28.792Z,37.57
2019-05-18T13:51:32.286Z,37.56
2019-05-18T13:54:35.797Z,37.53
2019-05-18T13:57:40.308Z,37.51
2019-05-18T14:00:44.003Z,37.51
2019-05-18T14:03:49.559Z,37.49
2019-05-18T14:06:53.249Z,37.45
2019-05-18T14:09:56.790Z,37.47
2019-05-18T14:13:00.290Z,37.46
2019-05-18T14:16:04.796Z,37.40
2019-05-18T14:19:09.365Z,37.41
2019-05-18T14:22:12.822Z,37.37
2019-05-18T14:25:19.726Z,37.39
2019-05-18T14:28:21.664Z,37.37
2019-05-18T14:31:25.304Z,37.34
2019-05-18T14:34:28.909Z,37.31
2019-05-18T14:37:32.372Z,37.27
2019-05-18T14:40:35.878Z,37.26
2019-05-18T14:43:41.438Z,37.23
2019-05-18T14:46:45.956Z,37.25
2019-05-18T14:49:49.482Z,37.23
2019-05-18T14:52:52.950Z,37.19
2019-05-18T14:55:57.504Z,37.18
2019-05-18T14:59:00.977Z,37.18
2019-05-18T15:02:04.491Z,37.14
2019-05-18T15:05:08.990Z,37.12
2019-05-18T15:08:13.537Z,37.12
2019-05-18T15:11:17.037Z,37.08
2019-05-18T15:14:20.539Z,37.08
2019-05-18T15:17:24.044Z,37.07
2019-05-18T15:20:27.565Z,37.07
2019-05-18T15:23:33.077Z,37.06
2019-05-18T15:26:36.601Z,37.01
2019-05-18T15:29:40.104Z,37.00
2019-05-18T15:32:43.583Z,36.98
2019-05-18T15:35:47.077Z,36.97
2019-05-18T15:38:50.589Z,36.97
2019-05-18T15:41:55.111Z,36.95
2019-05-18T15:44:58.668Z,36.96
2019-05-18T15:48:02.178Z,36.91
2019-05-18T15:51:06.635Z,36.88
2019-05-18T15:54:11.164Z,36.92
2019-05-18T15:57:14.829Z,36.94
2019-05-18T16:00:18.267Z,37.08
2019-05-18T16:03:21.874Z,37.14
2019-05-18T16:06:25.445Z,37.16
2019-05-18T16:09:28.888Z,37.20
2019-05-18T16:12:32.390Z,37.09
2019-05-18T16:15:35.892Z,37.00
2019-05-18T16:18:41.237Z,36.96
2019-05-18T16:21:44.738Z,36.99
2019-05-18T16:24:48.229Z,37.22
2019-05-18T16:27:51.733Z,37.38
2019-05-18T16:30:55.239Z,37.38
2019-05-18T16:33:58.725Z,37.38
2019-05-18T16:37:02.250Z,37.37
2019-05-18T16:40:05.811Z,37.39
2019-05-18T16:43:09.227Z,37.42
2019-05-18T16:46:12.742Z,37.40
2019-05-18T16:49:17.262Z,37.38
2019-05-18T16:52:20.752Z,37.35
2019-05-18T16:55:24.327Z,37.37
2019-05-18T16:58:27.758Z,37.43
2019-05-18T17:01:31.266Z,37.43
2019-05-18T17:04:35.781Z,37.36
2019-05-18T17:07:40.304Z,37.36
2019-05-18T17:10:43.831Z,37.31
2019-05-18T17:13:47.306Z,37.27
2019-05-18T17:16:50.812Z,37.35
2019-05-18T17:19:55.334Z,37.34
2019-05-18T17:22:59.860Z,37.34
2019-05-18T17:26:03.405Z,37.37
2019-05-18T17:29:06.881Z,37.31
2019-05-18T17:32:10.365Z,37.37
2019-05-18T17:35:14.887Z,37.35
2019-05-18T17:38:18.390Z,37.29
2019-05-18T17:41:21.900Z,37.22
2019-05-18T17:44:25.443Z,37.21
2019-05-18T17:47:29.619Z,37.15
2019-05-18T17:50:33.207Z,37.13
2019-05-18T17:53:36.720Z,37.09
2019-05-18T17:56:42.280Z,37.13
2019-05-18T17:59:45.774Z,37.11
2019-05-18T18:02:49.477Z,37.10
2019-05-18T18:05:52.968Z,37.06
2019-05-18T18:08:56.810Z,37.08
2019-05-18T18:12:01.216Z,37.06
2019-05-18T18:15:06.306Z,37.10
2019-05-18T18:18:10.908Z,37.12
2019-05-18T18:21:14.385Z,37.16
2019-05-18T18:24:17.875Z,37.22
2019-05-18T18:27:25.245Z,37.19
2019-05-18T18:30:27.751Z,37.22
2019-05-18T18:33:31.241Z,37.21
2019-05-18T18:36:34.751Z,37.25
2019-05-18T18:39:39.284Z,37.28
2019-05-18T18:42:42.674Z,37.24
2019-05-18T18:45:47.128Z,37.29
2019-05-18T18:48:50.621Z,37.73
2019-05-18T18:51:54.243Z,38.09
2019-05-18T18:54:57.792Z,38.19
2019-05-18T18:58:01.316Z,38.15
2019-05-18T19:01:04.926Z,38.04
2019-05-18T19:04:08.509Z,38.02
2019-05-18T19:07:12.013Z,37.95
2019-05-18T19:10:15.512Z,37.88
2019-05-18T19:13:19.018Z,37.97
2019-05-18T19:16:22.504Z,37.92
2019-05-18T19:19:29.022Z,37.87
2019-05-18T19:22:32.578Z,37.83
2019-05-18T19:25:37.120Z,37.80
2019-05-18T19:28:43.686Z,37.78
2019-05-18T19:31:48.197Z,37.83
2019-05-18T19:34:51.719Z,37.79
2019-05-18T19:37:55.327Z,37.77
2019-05-18T19:40:58.914Z,37.71
2019-05-18T19:44:04.482Z,37.71
2019-05-18T19:47:07.977Z,37.68
2019-05-18T19:50:12.490Z,37.68
2019-05-18T19:53:17.032Z,37.70
2019-05-18T19:56:20.513Z,37.74
2019-05-18T19:59:24.020Z,37.68
2019-05-18T20:02:27.531Z,37.62
2019-05-18T20:05:31.014Z,37.56
2019-05-18T20:08:34.586Z,37.49
2019-05-18T20:11:38.012Z,37.48
2019-05-18T20:14:42.543Z,37.46
2019-05-18T20:17:46.045Z,37.41
2019-05-18T20:20:49.584Z,37.36
2019-05-18T20:23:53.046Z,37.39
2019-05-18T20:26:56.548Z,37.35
2019-05-18T20:30:00.050Z,37.39
2019-05-18T20:33:03.587Z,37.34
2019-05-18T20:36:07.182Z,37.32
2019-05-18T20:39:10.853Z,37.33
2019-05-18T20:42:14.461Z,37.33
2019-05-18T20:45:18.009Z,37.33
2019-05-18T20:48:21.643Z,37.27
2019-05-18T20:51:25.172Z,37.26
2019-05-18T20:54:29.695Z,37.27
2019-05-18T20:57:33.211Z,37.25
2019-05-18T21:00:38.619Z,37.26
2019-05-18T21:03:43.478Z,37.24
2019-05-18T21:06:46.993Z,37.23
2019-05-18T21:09:50.479Z,37.30
2019-05-18T21:12:55.009Z,37.20
2019-05-18T21:15:58.531Z,37.27
2019-05-18T21:19:02.025Z,37.28
2019-05-18T21:22:05.687Z,37.29
2019-05-18T21:25:10.246Z,37.25
2019-05-18T21:28:13.737Z,37.25
2019-05-18T21:31:17.284Z,37.27
2019-05-18T21:34:21.759Z,37.25
2019-05-18T21:37:26.447Z,37.28
2019-05-18T21:40:29.992Z,37.28
2019-05-18T21:43:33.510Z,37.28
2019-05-18T21:46:39.103Z,37.25
2019-05-18T21:49:42.352Z,37.28
2019-05-18T21:52:46.851Z,37.22
2019-05-18T21:55:52.412Z,37.24
2019-05-18T21:59:09.054Z,37.25
2019-05-18T22:02:01.255Z,37.21
2019-05-18T22:05:05.025Z,37.25
2019-05-18T22:08:10.730Z,37.22
2019-05-18T22:11:14.233Z,37.23
2019-05-18T22:14:18.748Z,37.24
2019-05-18T22:17:22.236Z,37.24
2019-05-18T22:20:25.769Z,37.25
2019-05-18T22:23:31.297Z,37.23
2019-05-18T22:26:34.799Z,37.23
2019-05-18T22:29:38.330Z,37.23
2019-05-18T22:32:41.931Z,37.21
2019-05-18T22:35:45.503Z,37.25
2019-05-18T22:38:51.095Z,37.19
2019-05-18T22:41:54.572Z,37.25
2019-05-18T22:44:57.986Z,37.23
2019-05-18T22:48:01.552Z,37.24
2019-05-18T22:51:05.054Z,37.22
2019-05-18T22:54:08.570Z,37.22
2019-05-18T22:57:12.079Z,37.23
2019-05-18T23:00:15.611Z,37.22
2019-05-18T23:03:19.057Z,37.22
2019-05-18T23:06:22.563Z,37.23
2019-05-18T23:09:27.102Z,37.22
2019-05-18T23:12:32.630Z,37.25
2019-05-18T23:15:36.153Z,37.21
2019-05-18T23:18:39.657Z,37.18
2019-05-18T23:21:44.167Z,37.24
2019-05-18T23:24:48.763Z,37.21
2019-05-18T23:27:52.191Z,37.23
2019-05-18T23:30:55.742Z,37.22
2019-05-18T23:33:59.204Z,37.20
2019-05-18T23:37:02.773Z,37.23
2019-05-18T23:40:06.226Z,37.23
2019-05-18T23:43:10.733Z,37.22
2019-05-18T23:46:14.274Z,37.18
2019-05-18T23:49:17.734Z,37.22
2019-05-18T23:52:23.293Z,37.21
2019-05-18T23:55:28.846Z,37.17
2019-05-18T23:58:33.339Z,37.19
